sensor_id;sensor_type;location;lat;lon;timestamp;P1;durP1;ratioP1;P2;durP2;ratioP2
53010;SDS011;42803;55.762;38.084;2023-03-23T00:01:12;7.55;;;3.60;;
53010;SDS011;42803;55.762;38.084;2023-03-23T00:03:47;6.43;;;3.35;;
53010;SDS011;42803;55.762;38.084;2023-03-23T00:06:16;8.40;;;3.85;;
53010;SDS011;42803;55.762;38.084;2023-03-23T00:08:46;6.15;;;3.75;;
53010;SDS011;42803;55.762;38.084;2023-03-23T00:11:17;9.30;;;3.83;;
53010;SDS011;42803;55.762;38.084;2023-03-23T00:13:46;10.70;;;4.20;;
53010;SDS011;42803;55.762;38.084;2023-03-23T00:16:18;8.10;;;4.43;;
53010;SDS011;42803;55.762;38.084;2023-03-23T00:18:57;11.60;;;5.25;;
53010;SDS011;42803;55.762;38.084;2023-03-23T00:21:27;11.35;;;5.43;;
53010;SDS011;42803;55.762;38.084;2023-03-23T00:24:01;9.93;;;4.82;;
53010;SDS011;42803;55.762;38.084;2023-03-23T00:26:32;7.55;;;3.78;;
53010;SDS011;42803;55.762;38.084;2023-03-23T00:29:00;8.07;;;3.88;;
53010;SDS011;42803;55.762;38.084;2023-03-23T00:31:30;10.40;;;4.68;;
53010;SDS011;42803;55.762;38.084;2023-03-23T00:34:03;10.23;;;4.78;;
53010;SDS011;42803;55.762;38.084;2023-03-23T00:36:32;9.07;;;4.57;;
53010;SDS011;42803;55.762;38.084;2023-03-23T00:39:02;12.00;;;6.70;;
53010;SDS011;42803;55.762;38.084;2023-03-23T00:41:31;7.65;;;4.22;;
53010;SDS011;42803;55.762;38.084;2023-03-23T00:44:02;7.88;;;4.00;;
53010;SDS011;42803;55.762;38.084;2023-03-23T00:46:30;7.00;;;3.63;;
53010;SDS011;42803;55.762;38.084;2023-03-23T00:48:58;7.30;;;4.18;;
53010;SDS011;42803;55.762;38.084;2023-03-23T00:51:27;9.15;;;4.03;;
53010;SDS011;42803;55.762;38.084;2023-03-23T00:53:55;8.15;;;3.50;;
53010;SDS011;42803;55.762;38.084;2023-03-23T00:56:23;5.78;;;3.60;;
53010;SDS011;42803;55.762;38.084;2023-03-23T00:58:52;7.07;;;3.95;;
53010;SDS011;42803;55.762;38.084;2023-03-23T01:01:20;5.82;;;3.53;;
53010;SDS011;42803;55.762;38.084;2023-03-23T01:03:48;6.28;;;4.20;;
53010;SDS011;42803;55.762;38.084;2023-03-23T01:06:16;6.95;;;4.05;;
53010;SDS011;42803;55.762;38.084;2023-03-23T01:08:46;8.35;;;3.55;;
53010;SDS011;42803;55.762;38.084;2023-03-23T01:11:15;7.15;;;3.67;;
53010;SDS011;42803;55.762;38.084;2023-03-23T01:13:44;8.20;;;3.75;;
53010;SDS011;42803;55.762;38.084;2023-03-23T01:16:12;7.18;;;3.63;;
53010;SDS011;42803;55.762;38.084;2023-03-23T01:18:40;5.38;;;3.97;;
53010;SDS011;42803;55.762;38.084;2023-03-23T01:21:10;6.65;;;4.25;;
53010;SDS011;42803;55.762;38.084;2023-03-23T01:23:43;6.88;;;4.05;;
53010;SDS011;42803;55.762;38.084;2023-03-23T01:26:13;7.65;;;3.83;;
53010;SDS011;42803;55.762;38.084;2023-03-23T01:28:43;7.22;;;3.72;;
53010;SDS011;42803;55.762;38.084;2023-03-23T01:31:12;8.57;;;4.50;;
53010;SDS011;42803;55.762;38.084;2023-03-23T01:33:41;7.45;;;4.25;;
53010;SDS011;42803;55.762;38.084;2023-03-23T01:36:10;10.05;;;4.90;;
53010;SDS011;42803;55.762;38.084;2023-03-23T01:38:42;8.63;;;5.78;;
53010;SDS011;42803;55.762;38.084;2023-03-23T01:41:12;11.32;;;6.43;;
53010;SDS011;42803;55.762;38.084;2023-03-23T01:43:54;8.88;;;6.50;;
53010;SDS011;42803;55.762;38.084;2023-03-23T01:46:25;13.57;;;8.55;;
53010;SDS011;42803;55.762;38.084;2023-03-23T01:48:55;13.98;;;7.80;;
53010;SDS011;42803;55.762;38.084;2023-03-23T01:51:25;11.85;;;8.27;;
53010;SDS011;42803;55.762;38.084;2023-03-23T01:53:55;10.57;;;6.47;;
53010;SDS011;42803;55.762;38.084;2023-03-23T01:56:29;8.73;;;4.95;;
53010;SDS011;42803;55.762;38.084;2023-03-23T01:59:04;8.27;;;3.90;;
53010;SDS011;42803;55.762;38.084;2023-03-23T02:01:33;8.40;;;4.35;;
53010;SDS011;42803;55.762;38.084;2023-03-23T02:04:05;6.20;;;3.85;;
53010;SDS011;42803;55.762;38.084;2023-03-23T02:06:36;10.18;;;3.92;;
53010;SDS011;42803;55.762;38.084;2023-03-23T02:09:25;8.30;;;4.00;;
53010;SDS011;42803;55.762;38.084;2023-03-23T02:11:55;9.90;;;3.60;;
53010;SDS011;42803;55.762;38.084;2023-03-23T02:14:23;4.28;;;2.72;;
53010;SDS011;42803;55.762;38.084;2023-03-23T02:17:15;7.07;;;3.53;;
53010;SDS011;42803;55.762;38.084;2023-03-23T02:19:57;5.18;;;3.20;;
53010;SDS011;42803;55.762;38.084;2023-03-23T02:22:43;7.35;;;3.58;;
53010;SDS011;42803;55.762;38.084;2023-03-23T02:25:31;7.50;;;3.38;;
53010;SDS011;42803;55.762;38.084;2023-03-23T02:28:19;5.68;;;2.58;;
53010;SDS011;42803;55.762;38.084;2023-03-23T02:31:09;4.85;;;2.65;;
53010;SDS011;42803;55.762;38.084;2023-03-23T02:33:57;6.30;;;3.08;;
53010;SDS011;42803;55.762;38.084;2023-03-23T02:36:28;6.50;;;3.10;;
53010;SDS011;42803;55.762;38.084;2023-03-23T02:41:34;9.50;;;3.20;;
53010;SDS011;42803;55.762;38.084;2023-03-23T02:44:08;7.25;;;4.28;;
53010;SDS011;42803;55.762;38.084;2023-03-23T02:46:37;9.05;;;4.35;;
53010;SDS011;42803;55.762;38.084;2023-03-23T02:49:09;5.10;;;4.35;;
53010;SDS011;42803;55.762;38.084;2023-03-23T02:51:40;7.18;;;5.88;;
53010;SDS011;42803;55.762;38.084;2023-03-23T02:54:12;8.43;;;6.00;;
53010;SDS011;42803;55.762;38.084;2023-03-23T02:56:42;6.50;;;4.65;;
53010;SDS011;42803;55.762;38.084;2023-03-23T02:59:20;5.03;;;3.75;;
53010;SDS011;42803;55.762;38.084;2023-03-23T03:01:53;3.40;;;2.53;;
53010;SDS011;42803;55.762;38.084;2023-03-23T03:04:28;3.70;;;2.75;;
53010;SDS011;42803;55.762;38.084;2023-03-23T03:07:10;4.20;;;2.60;;
53010;SDS011;42803;55.762;38.084;2023-03-23T03:09:52;6.30;;;2.83;;
53010;SDS011;42803;55.762;38.084;2023-03-23T03:12:28;5.30;;;2.20;;
53010;SDS011;42803;55.762;38.084;2023-03-23T03:15:06;3.10;;;2.17;;
53010;SDS011;42803;55.762;38.084;2023-03-23T03:17:44;2.72;;;2.03;;
53010;SDS011;42803;55.762;38.084;2023-03-23T03:20:19;3.95;;;2.47;;
53010;SDS011;42803;55.762;38.084;2023-03-23T03:22:51;2.90;;;2.00;;
53010;SDS011;42803;55.762;38.084;2023-03-23T03:25:21;3.55;;;2.00;;
53010;SDS011;42803;55.762;38.084;2023-03-23T03:27:51;3.50;;;2.13;;
53010;SDS011;42803;55.762;38.084;2023-03-23T03:30:35;5.82;;;2.38;;
53010;SDS011;42803;55.762;38.084;2023-03-23T03:33:06;7.50;;;2.65;;
53010;SDS011;42803;55.762;38.084;2023-03-23T03:35:36;8.25;;;3.13;;
53010;SDS011;42803;55.762;38.084;2023-03-23T03:38:06;8.00;;;3.45;;
53010;SDS011;42803;55.762;38.084;2023-03-23T03:40:36;8.75;;;3.92;;
53010;SDS011;42803;55.762;38.084;2023-03-23T03:43:04;14.77;;;4.63;;
53010;SDS011;42803;55.762;38.084;2023-03-23T03:45:33;7.88;;;3.65;;
53010;SDS011;42803;55.762;38.084;2023-03-23T03:48:01;13.68;;;5.53;;
53010;SDS011;42803;55.762;38.084;2023-03-23T03:50:30;19.90;;;6.05;;
53010;SDS011;42803;55.762;38.084;2023-03-23T03:53:00;12.43;;;5.18;;
53010;SDS011;42803;55.762;38.084;2023-03-23T03:55:28;10.07;;;4.45;;
53010;SDS011;42803;55.762;38.084;2023-03-23T03:58:03;9.50;;;3.78;;
53010;SDS011;42803;55.762;38.084;2023-03-23T04:01:09;5.35;;;2.70;;
53010;SDS011;42803;55.762;38.084;2023-03-23T04:03:39;13.50;;;3.92;;
53010;SDS011;42803;55.762;38.084;2023-03-23T04:06:15;17.80;;;5.65;;
53010;SDS011;42803;55.762;38.084;2023-03-23T04:08:44;11.10;;;4.57;;
53010;SDS011;42803;55.762;38.084;2023-03-23T04:11:13;15.18;;;4.63;;
53010;SDS011;42803;55.762;38.084;2023-03-23T04:13:42;16.60;;;5.07;;
53010;SDS011;42803;55.762;38.084;2023-03-23T04:16:21;13.90;;;5.18;;
53010;SDS011;42803;55.762;38.084;2023-03-23T04:18:49;11.23;;;4.05;;
53010;SDS011;42803;55.762;38.084;2023-03-23T04:21:18;9.63;;;3.90;;
53010;SDS011;42803;55.762;38.084;2023-03-23T04:23:50;11.70;;;4.38;;
53010;SDS011;42803;55.762;38.084;2023-03-23T04:26:20;7.35;;;3.67;;
53010;SDS011;42803;55.762;38.084;2023-03-23T04:28:50;9.93;;;3.60;;
53010;SDS011;42803;55.762;38.084;2023-03-23T04:31:36;7.65;;;3.90;;
53010;SDS011;42803;55.762;38.084;2023-03-23T04:34:17;10.35;;;3.53;;
53010;SDS011;42803;55.762;38.084;2023-03-23T04:36:48;10.35;;;4.55;;
53010;SDS011;42803;55.762;38.084;2023-03-23T04:39:23;9.43;;;3.92;;
53010;SDS011;42803;55.762;38.084;2023-03-23T04:41:56;10.95;;;4.70;;
53010;SDS011;42803;55.762;38.084;2023-03-23T04:44:47;8.57;;;4.50;;
53010;SDS011;42803;55.762;38.084;2023-03-23T04:47:35;7.55;;;4.22;;
53010;SDS011;42803;55.762;38.084;2023-03-23T04:50:14;9.55;;;4.30;;
53010;SDS011;42803;55.762;38.084;2023-03-23T04:52:44;10.32;;;4.70;;
53010;SDS011;42803;55.762;38.084;2023-03-23T04:55:16;11.43;;;4.68;;
53010;SDS011;42803;55.762;38.084;2023-03-23T04:57:50;12.32;;;4.68;;
53010;SDS011;42803;55.762;38.084;2023-03-23T05:00:34;13.35;;;5.53;;
53010;SDS011;42803;55.762;38.084;2023-03-23T05:03:04;12.75;;;4.40;;
53010;SDS011;42803;55.762;38.084;2023-03-23T05:05:34;12.35;;;5.03;;
53010;SDS011;42803;55.762;38.084;2023-03-23T05:08:06;9.27;;;3.97;;
53010;SDS011;42803;55.762;38.084;2023-03-23T05:10:39;11.60;;;5.78;;
53010;SDS011;42803;55.762;38.084;2023-03-23T05:13:11;7.68;;;4.72;;
53010;SDS011;42803;55.762;38.084;2023-03-23T05:15:39;9.63;;;4.45;;
53010;SDS011;42803;55.762;38.084;2023-03-23T05:18:08;10.25;;;4.57;;
53010;SDS011;42803;55.762;38.084;2023-03-23T05:20:37;9.25;;;4.53;;
53010;SDS011;42803;55.762;38.084;2023-03-23T05:23:14;8.82;;;4.13;;
53010;SDS011;42803;55.762;38.084;2023-03-23T05:25:51;11.38;;;4.82;;
53010;SDS011;42803;55.762;38.084;2023-03-23T05:28:20;13.05;;;4.88;;
53010;SDS011;42803;55.762;38.084;2023-03-23T05:30:55;11.00;;;3.80;;
53010;SDS011;42803;55.762;38.084;2023-03-23T05:33:28;7.35;;;4.15;;
53010;SDS011;42803;55.762;38.084;2023-03-23T05:36:03;11.68;;;5.40;;
53010;SDS011;42803;55.762;38.084;2023-03-23T05:38:50;9.85;;;5.05;;
53010;SDS011;42803;55.762;38.084;2023-03-23T05:41:20;13.02;;;4.97;;
53010;SDS011;42803;55.762;38.084;2023-03-23T05:43:50;12.52;;;5.28;;
53010;SDS011;42803;55.762;38.084;2023-03-23T05:46:23;14.48;;;5.18;;
53010;SDS011;42803;55.762;38.084;2023-03-23T05:48:55;12.82;;;5.28;;
53010;SDS011;42803;55.762;38.084;2023-03-23T05:51:30;11.07;;;5.32;;
53010;SDS011;42803;55.762;38.084;2023-03-23T05:53:58;11.55;;;5.70;;
53010;SDS011;42803;55.762;38.084;2023-03-23T05:56:28;14.52;;;6.50;;
53010;SDS011;42803;55.762;38.084;2023-03-23T05:59:11;14.50;;;6.65;;
53010;SDS011;42803;55.762;38.084;2023-03-23T06:01:42;12.77;;;5.82;;
53010;SDS011;42803;55.762;38.084;2023-03-23T06:04:09;11.32;;;5.03;;
53010;SDS011;42803;55.762;38.084;2023-03-23T06:06:49;8.88;;;5.03;;
53010;SDS011;42803;55.762;38.084;2023-03-23T06:09:18;13.20;;;5.20;;
53010;SDS011;42803;55.762;38.084;2023-03-23T06:12:08;9.85;;;4.95;;
53010;SDS011;42803;55.762;38.084;2023-03-23T06:14:44;16.58;;;7.07;;
53010;SDS011;42803;55.762;38.084;2023-03-23T06:17:15;12.18;;;4.75;;
53010;SDS011;42803;55.762;38.084;2023-03-23T06:19:44;13.20;;;5.75;;
53010;SDS011;42803;55.762;38.084;2023-03-23T06:22:15;12.18;;;5.70;;
53010;SDS011;42803;55.762;38.084;2023-03-23T06:25:04;13.93;;;5.63;;
53010;SDS011;42803;55.762;38.084;2023-03-23T06:27:41;12.73;;;5.30;;
53010;SDS011;42803;55.762;38.084;2023-03-23T06:30:10;14.13;;;5.75;;
53010;SDS011;42803;55.762;38.084;2023-03-23T06:32:38;13.07;;;5.57;;
53010;SDS011;42803;55.762;38.084;2023-03-23T06:35:10;11.95;;;5.43;;
53010;SDS011;42803;55.762;38.084;2023-03-23T06:37:57;10.20;;;5.25;;
53010;SDS011;42803;55.762;38.084;2023-03-23T06:40:51;11.70;;;4.75;;
53010;SDS011;42803;55.762;38.084;2023-03-23T06:43:20;9.15;;;5.03;;
53010;SDS011;42803;55.762;38.084;2023-03-23T06:45:49;10.85;;;6.32;;
53010;SDS011;42803;55.762;38.084;2023-03-23T06:48:36;10.95;;;5.13;;
53010;SDS011;42803;55.762;38.084;2023-03-23T06:51:05;10.95;;;5.32;;
53010;SDS011;42803;55.762;38.084;2023-03-23T06:53:36;10.20;;;5.78;;
53010;SDS011;42803;55.762;38.084;2023-03-23T06:56:08;15.38;;;6.80;;
53010;SDS011;42803;55.762;38.084;2023-03-23T06:58:37;14.20;;;6.68;;
53010;SDS011;42803;55.762;38.084;2023-03-23T07:01:05;10.05;;;5.78;;
53010;SDS011;42803;55.762;38.084;2023-03-23T07:03:39;16.88;;;7.22;;
53010;SDS011;42803;55.762;38.084;2023-03-23T07:06:10;12.98;;;6.05;;
53010;SDS011;42803;55.762;38.084;2023-03-23T07:08:47;16.23;;;6.40;;
53010;SDS011;42803;55.762;38.084;2023-03-23T07:11:21;13.00;;;5.60;;
53010;SDS011;42803;55.762;38.084;2023-03-23T07:13:50;14.25;;;5.65;;
53010;SDS011;42803;55.762;38.084;2023-03-23T07:16:19;12.15;;;5.68;;
53010;SDS011;42803;55.762;38.084;2023-03-23T07:18:50;13.60;;;6.57;;
53010;SDS011;42803;55.762;38.084;2023-03-23T07:21:19;11.52;;;5.53;;
53010;SDS011;42803;55.762;38.084;2023-03-23T07:23:48;10.90;;;5.55;;
53010;SDS011;42803;55.762;38.084;2023-03-23T07:26:37;14.60;;;5.80;;
53010;SDS011;42803;55.762;38.084;2023-03-23T07:29:07;13.50;;;5.53;;
53010;SDS011;42803;55.762;38.084;2023-03-23T07:31:41;9.48;;;5.05;;
53010;SDS011;42803;55.762;38.084;2023-03-23T07:34:09;10.50;;;5.40;;
53010;SDS011;42803;55.762;38.084;2023-03-23T07:36:47;9.55;;;4.93;;
53010;SDS011;42803;55.762;38.084;2023-03-23T07:39:16;9.40;;;5.13;;
53010;SDS011;42803;55.762;38.084;2023-03-23T07:41:45;13.65;;;6.05;;
53010;SDS011;42803;55.762;38.084;2023-03-23T07:44:23;9.95;;;4.88;;
53010;SDS011;42803;55.762;38.084;2023-03-23T07:46:51;9.23;;;5.25;;
53010;SDS011;42803;55.762;38.084;2023-03-23T07:49:28;10.00;;;5.32;;
53010;SDS011;42803;55.762;38.084;2023-03-23T07:52:06;12.88;;;5.65;;
53010;SDS011;42803;55.762;38.084;2023-03-23T07:54:35;12.40;;;5.78;;
53010;SDS011;42803;55.762;38.084;2023-03-23T07:57:23;11.90;;;5.82;;
53010;SDS011;42803;55.762;38.084;2023-03-23T07:59:54;11.90;;;5.28;;
53010;SDS011;42803;55.762;38.084;2023-03-23T08:02:23;8.27;;;5.10;;
53010;SDS011;42803;55.762;38.084;2023-03-23T08:05:12;11.60;;;5.30;;
53010;SDS011;42803;55.762;38.084;2023-03-23T08:08:04;11.35;;;5.00;;
53010;SDS011;42803;55.762;38.084;2023-03-23T08:10:53;8.50;;;4.57;;
53010;SDS011;42803;55.762;38.084;2023-03-23T08:13:41;12.93;;;5.25;;
53010;SDS011;42803;55.762;38.084;2023-03-23T08:16:29;9.27;;;4.88;;
53010;SDS011;42803;55.762;38.084;2023-03-23T08:18:57;9.18;;;5.10;;
53010;SDS011;42803;55.762;38.084;2023-03-23T08:22:00;9.68;;;5.07;;
53010;SDS011;42803;55.762;38.084;2023-03-23T08:24:47;7.68;;;4.20;;
53010;SDS011;42803;55.762;38.084;2023-03-23T08:27:38;9.13;;;5.63;;
53010;SDS011;42803;55.762;38.084;2023-03-23T08:30:28;7.70;;;4.55;;
53010;SDS011;42803;55.762;38.084;2023-03-23T08:33:14;9.48;;;5.20;;
53010;SDS011;42803;55.762;38.084;2023-03-23T08:36:18;9.13;;;4.80;;
53010;SDS011;42803;55.762;38.084;2023-03-23T08:38:56;10.82;;;5.07;;
53010;SDS011;42803;55.762;38.084;2023-03-23T08:41:37;11.50;;;5.57;;
53010;SDS011;42803;55.762;38.084;2023-03-23T08:44:20;7.30;;;4.50;;
53010;SDS011;42803;55.762;38.084;2023-03-23T08:47:12;9.32;;;5.28;;
53010;SDS011;42803;55.762;38.084;2023-03-23T08:50:00;7.55;;;4.53;;
53010;SDS011;42803;55.762;38.084;2023-03-23T08:52:47;7.70;;;4.63;;
53010;SDS011;42803;55.762;38.084;2023-03-23T08:55:34;5.40;;;3.58;;
53010;SDS011;42803;55.762;38.084;2023-03-23T08:58:20;8.70;;;4.78;;
53010;SDS011;42803;55.762;38.084;2023-03-23T09:01:11;9.25;;;5.05;;
53010;SDS011;42803;55.762;38.084;2023-03-23T09:04:11;8.20;;;4.78;;
53010;SDS011;42803;55.762;38.084;2023-03-23T09:06:56;9.07;;;4.78;;
53010;SDS011;42803;55.762;38.084;2023-03-23T09:09:24;9.77;;;5.13;;
53010;SDS011;42803;55.762;38.084;2023-03-23T09:11:53;8.77;;;5.13;;
53010;SDS011;42803;55.762;38.084;2023-03-23T09:14:21;9.05;;;5.18;;
53010;SDS011;42803;55.762;38.084;2023-03-23T09:16:49;9.02;;;4.97;;
53010;SDS011;42803;55.762;38.084;2023-03-23T09:19:17;6.72;;;4.68;;
53010;SDS011;42803;55.762;38.084;2023-03-23T09:21:46;9.27;;;4.53;;
53010;SDS011;42803;55.762;38.084;2023-03-23T09:24:15;6.75;;;4.53;;
53010;SDS011;42803;55.762;38.084;2023-03-23T09:26:43;8.00;;;4.65;;
53010;SDS011;42803;55.762;38.084;2023-03-23T09:29:11;5.10;;;3.70;;
53010;SDS011;42803;55.762;38.084;2023-03-23T09:31:39;8.85;;;3.85;;
53010;SDS011;42803;55.762;38.084;2023-03-23T09:34:07;7.25;;;4.20;;
53010;SDS011;42803;55.762;38.084;2023-03-23T09:36:36;8.85;;;4.72;;
53010;SDS011;42803;55.762;38.084;2023-03-23T09:39:05;9.48;;;4.35;;
53010;SDS011;42803;55.762;38.084;2023-03-23T09:41:48;7.65;;;4.65;;
53010;SDS011;42803;55.762;38.084;2023-03-23T09:44:29;9.65;;;4.88;;
53010;SDS011;42803;55.762;38.084;2023-03-23T09:47:05;6.28;;;4.60;;
53010;SDS011;42803;55.762;38.084;2023-03-23T09:52:09;8.00;;;4.70;;
53010;SDS011;42803;55.762;38.084;2023-03-23T09:54:42;7.72;;;4.18;;
53010;SDS011;42803;55.762;38.084;2023-03-23T09:57:15;10.32;;;5.13;;
53010;SDS011;42803;55.762;38.084;2023-03-23T09:59:49;6.63;;;4.43;;
53010;SDS011;42803;55.762;38.084;2023-03-23T10:02:24;8.10;;;4.97;;
53010;SDS011;42803;55.762;38.084;2023-03-23T10:05:00;8.98;;;4.32;;
53010;SDS011;42803;55.762;38.084;2023-03-23T10:07:43;6.18;;;3.90;;
53010;SDS011;42803;55.762;38.084;2023-03-23T10:10:11;6.75;;;3.97;;
53010;SDS011;42803;55.762;38.084;2023-03-23T10:12:42;7.70;;;3.70;;
53010;SDS011;42803;55.762;38.084;2023-03-23T10:15:17;6.90;;;4.47;;
53010;SDS011;42803;55.762;38.084;2023-03-23T10:17:52;6.05;;;4.20;;
53010;SDS011;42803;55.762;38.084;2023-03-23T10:20:36;7.85;;;3.75;;
53010;SDS011;42803;55.762;38.084;2023-03-23T10:23:12;8.45;;;3.75;;
53010;SDS011;42803;55.762;38.084;2023-03-23T10:25:44;7.60;;;4.00;;
53010;SDS011;42803;55.762;38.084;2023-03-23T10:28:34;6.20;;;3.72;;
53010;SDS011;42803;55.762;38.084;2023-03-23T10:31:05;8.00;;;3.72;;
53010;SDS011;42803;55.762;38.084;2023-03-23T10:33:38;12.07;;;4.10;;
53010;SDS011;42803;55.762;38.084;2023-03-23T10:36:10;7.93;;;4.22;;
53010;SDS011;42803;55.762;38.084;2023-03-23T10:38:43;7.13;;;3.50;;
53010;SDS011;42803;55.762;38.084;2023-03-23T10:41:16;5.90;;;3.70;;
53010;SDS011;42803;55.762;38.084;2023-03-23T10:43:47;6.32;;;3.67;;
53010;SDS011;42803;55.762;38.084;2023-03-23T10:46:20;7.40;;;3.85;;
53010;SDS011;42803;55.762;38.084;2023-03-23T10:48:54;6.75;;;3.97;;
53010;SDS011;42803;55.762;38.084;2023-03-23T10:51:27;8.02;;;3.50;;
53010;SDS011;42803;55.762;38.084;2023-03-23T10:54:00;6.90;;;3.88;;
53010;SDS011;42803;55.762;38.084;2023-03-23T10:56:34;3.97;;;3.08;;
53010;SDS011;42803;55.762;38.084;2023-03-23T10:59:15;4.82;;;3.38;;
53010;SDS011;42803;55.762;38.084;2023-03-23T11:01:48;5.60;;;3.70;;
53010;SDS011;42803;55.762;38.084;2023-03-23T11:04:19;6.00;;;3.50;;
53010;SDS011;42803;55.762;38.084;2023-03-23T11:06:50;5.43;;;3.90;;
53010;SDS011;42803;55.762;38.084;2023-03-23T11:09:21;4.65;;;3.28;;
53010;SDS011;42803;55.762;38.084;2023-03-23T11:12:00;6.65;;;3.45;;
53010;SDS011;42803;55.762;38.084;2023-03-23T11:14:31;8.48;;;3.60;;
53010;SDS011;42803;55.762;38.084;2023-03-23T11:17:00;6.63;;;3.83;;
53010;SDS011;42803;55.762;38.084;2023-03-23T11:19:30;4.85;;;3.60;;
53010;SDS011;42803;55.762;38.084;2023-03-23T11:22:04;5.13;;;3.47;;
53010;SDS011;42803;55.762;38.084;2023-03-23T11:27:03;5.65;;;2.95;;
53010;SDS011;42803;55.762;38.084;2023-03-23T11:29:36;4.15;;;3.15;;
53010;SDS011;42803;55.762;38.084;2023-03-23T11:32:18;6.00;;;3.75;;
53010;SDS011;42803;55.762;38.084;2023-03-23T11:34:54;5.93;;;3.08;;
53010;SDS011;42803;55.762;38.084;2023-03-23T11:37:29;6.67;;;3.90;;
53010;SDS011;42803;55.762;38.084;2023-03-23T11:40:00;6.97;;;3.65;;
53010;SDS011;42803;55.762;38.084;2023-03-23T11:42:34;6.93;;;3.60;;
53010;SDS011;42803;55.762;38.084;2023-03-23T11:45:14;6.30;;;3.05;;
53010;SDS011;42803;55.762;38.084;2023-03-23T11:47:49;5.95;;;3.20;;
53010;SDS011;42803;55.762;38.084;2023-03-23T11:50:28;4.15;;;3.15;;
53010;SDS011;42803;55.762;38.084;2023-03-23T11:53:01;5.10;;;3.30;;
53010;SDS011;42803;55.762;38.084;2023-03-23T11:55:53;6.72;;;3.15;;
53010;SDS011;42803;55.762;38.084;2023-03-23T11:58:27;4.97;;;3.10;;
53010;SDS011;42803;55.762;38.084;2023-03-23T12:01:04;7.07;;;3.35;;
53010;SDS011;42803;55.762;38.084;2023-03-23T12:03:42;4.97;;;2.80;;
53010;SDS011;42803;55.762;38.084;2023-03-23T12:06:21;6.93;;;3.17;;
53010;SDS011;42803;55.762;38.084;2023-03-23T12:08:59;7.22;;;3.40;;
53010;SDS011;42803;55.762;38.084;2023-03-23T12:11:40;5.97;;;2.95;;
53010;SDS011;42803;55.762;38.084;2023-03-23T12:14:16;5.22;;;2.92;;
53010;SDS011;42803;55.762;38.084;2023-03-23T12:16:55;3.87;;;3.13;;
53010;SDS011;42803;55.762;38.084;2023-03-23T12:19:32;4.25;;;3.05;;
53010;SDS011;42803;55.762;38.084;2023-03-23T12:22:11;5.30;;;3.22;;
53010;SDS011;42803;55.762;38.084;2023-03-23T12:24:51;5.03;;;3.25;;
53010;SDS011;42803;55.762;38.084;2023-03-23T12:27:29;7.03;;;3.88;;
53010;SDS011;42803;55.762;38.084;2023-03-23T12:30:11;5.78;;;3.25;;
53010;SDS011;42803;55.762;38.084;2023-03-23T12:32:56;5.63;;;3.45;;
53010;SDS011;42803;55.762;38.084;2023-03-23T12:35:40;4.03;;;2.88;;
53010;SDS011;42803;55.762;38.084;2023-03-23T12:38:22;6.28;;;3.00;;
53010;SDS011;42803;55.762;38.084;2023-03-23T12:41:05;4.50;;;2.83;;
53010;SDS011;42803;55.762;38.084;2023-03-23T12:43:46;6.57;;;3.03;;
53010;SDS011;42803;55.762;38.084;2023-03-23T12:46:27;3.95;;;2.60;;
53010;SDS011;42803;55.762;38.084;2023-03-23T12:49:19;5.65;;;3.20;;
53010;SDS011;42803;55.762;38.084;2023-03-23T12:51:54;4.13;;;2.80;;
53010;SDS011;42803;55.762;38.084;2023-03-23T12:54:28;9.18;;;2.70;;
53010;SDS011;42803;55.762;38.084;2023-03-23T12:57:01;4.75;;;3.13;;
53010;SDS011;42803;55.762;38.084;2023-03-23T12:59:36;5.82;;;3.25;;
53010;SDS011;42803;55.762;38.084;2023-03-23T13:02:13;3.60;;;2.72;;
53010;SDS011;42803;55.762;38.084;2023-03-23T13:04:52;3.55;;;2.55;;
53010;SDS011;42803;55.762;38.084;2023-03-23T13:07:30;5.25;;;3.00;;
53010;SDS011;42803;55.762;38.084;2023-03-23T13:10:05;4.35;;;2.80;;
53010;SDS011;42803;55.762;38.084;2023-03-23T13:12:39;3.17;;;2.30;;
53010;SDS011;42803;55.762;38.084;2023-03-23T13:15:13;4.05;;;2.85;;
53010;SDS011;42803;55.762;38.084;2023-03-23T13:17:51;5.88;;;3.65;;
53010;SDS011;42803;55.762;38.084;2023-03-23T13:23:30;5.47;;;3.10;;
53010;SDS011;42803;55.762;38.084;2023-03-23T13:26:01;4.40;;;2.90;;
53010;SDS011;42803;55.762;38.084;2023-03-23T13:28:32;3.97;;;2.63;;
53010;SDS011;42803;55.762;38.084;2023-03-23T13:31:03;5.25;;;3.03;;
53010;SDS011;42803;55.762;38.084;2023-03-23T13:33:39;5.32;;;3.35;;
53010;SDS011;42803;55.762;38.084;2023-03-23T13:36:15;5.90;;;2.58;;
53010;SDS011;42803;55.762;38.084;2023-03-23T13:38:47;4.45;;;2.55;;
53010;SDS011;42803;55.762;38.084;2023-03-23T13:41:18;5.43;;;2.80;;
53010;SDS011;42803;55.762;38.084;2023-03-23T13:43:48;5.47;;;3.30;;
53010;SDS011;42803;55.762;38.084;2023-03-23T13:46:27;7.32;;;2.65;;
53010;SDS011;42803;55.762;38.084;2023-03-23T13:49:03;5.50;;;3.05;;
53010;SDS011;42803;55.762;38.084;2023-03-23T13:51:58;3.38;;;2.67;;
53010;SDS011;42803;55.762;38.084;2023-03-23T13:54:30;7.68;;;3.42;;
53010;SDS011;42803;55.762;38.084;2023-03-23T13:57:19;5.40;;;2.67;;
53010;SDS011;42803;55.762;38.084;2023-03-23T14:00:09;5.35;;;3.13;;
53010;SDS011;42803;55.762;38.084;2023-03-23T14:02:41;6.03;;;3.40;;
53010;SDS011;42803;55.762;38.084;2023-03-23T14:05:28;6.03;;;3.20;;
53010;SDS011;42803;55.762;38.084;2023-03-23T14:08:01;6.18;;;2.90;;
53010;SDS011;42803;55.762;38.084;2023-03-23T14:10:36;4.47;;;3.30;;
53010;SDS011;42803;55.762;38.084;2023-03-23T14:13:10;4.55;;;3.20;;
53010;SDS011;42803;55.762;38.084;2023-03-23T14:15:43;3.83;;;2.75;;
53010;SDS011;42803;55.762;38.084;2023-03-23T14:18:21;4.80;;;2.58;;
53010;SDS011;42803;55.762;38.084;2023-03-23T14:20:52;4.35;;;2.85;;
53010;SDS011;42803;55.762;38.084;2023-03-23T14:23:24;7.18;;;3.35;;
53010;SDS011;42803;55.762;38.084;2023-03-23T14:25:55;5.22;;;3.08;;
53010;SDS011;42803;55.762;38.084;2023-03-23T14:28:31;7.32;;;3.70;;
53010;SDS011;42803;55.762;38.084;2023-03-23T14:31:01;6.05;;;3.40;;
53010;SDS011;42803;55.762;38.084;2023-03-23T14:33:30;9.55;;;3.63;;
53010;SDS011;42803;55.762;38.084;2023-03-23T14:35:58;7.35;;;3.17;;
53010;SDS011;42803;55.762;38.084;2023-03-23T14:38:28;6.90;;;3.85;;
53010;SDS011;42803;55.762;38.084;2023-03-23T14:41:01;11.40;;;6.00;;
53010;SDS011;42803;55.762;38.084;2023-03-23T14:43:31;9.10;;;4.32;;
53010;SDS011;42803;55.762;38.084;2023-03-23T14:46:02;10.63;;;4.13;;
53010;SDS011;42803;55.762;38.084;2023-03-23T14:48:34;9.30;;;4.28;;
53010;SDS011;42803;55.762;38.084;2023-03-23T14:51:03;7.35;;;4.13;;
53010;SDS011;42803;55.762;38.084;2023-03-23T14:53:35;11.68;;;3.90;;
53010;SDS011;42803;55.762;38.084;2023-03-23T14:56:09;6.20;;;3.50;;
53010;SDS011;42803;55.762;38.084;2023-03-23T14:58:43;10.23;;;4.30;;
53010;SDS011;42803;55.762;38.084;2023-03-23T15:01:13;6.80;;;3.53;;
53010;SDS011;42803;55.762;38.084;2023-03-23T15:03:52;7.15;;;3.70;;
53010;SDS011;42803;55.762;38.084;2023-03-23T15:06:23;5.93;;;3.45;;
53010;SDS011;42803;55.762;38.084;2023-03-23T15:08:56;7.15;;;3.60;;
53010;SDS011;42803;55.762;38.084;2023-03-23T15:11:28;6.80;;;3.53;;
53010;SDS011;42803;55.762;38.084;2023-03-23T15:14:00;9.70;;;4.07;;
53010;SDS011;42803;55.762;38.084;2023-03-23T15:16:37;9.20;;;4.80;;
53010;SDS011;42803;55.762;38.084;2023-03-23T15:19:16;12.32;;;4.50;;
53010;SDS011;42803;55.762;38.084;2023-03-23T15:21:51;11.38;;;4.13;;
53010;SDS011;42803;55.762;38.084;2023-03-23T15:24:27;10.90;;;4.97;;
53010;SDS011;42803;55.762;38.084;2023-03-23T15:27:03;9.65;;;4.90;;